Time;durP1;ratioP1;P1;durP2;ratioP2;P2;SDS_P1;SDS_P2;PMS_P1;PMS_P2;Temp;Humidity;BMP_temperature;BMP_pressure;BME280_temperature;BME280_humidity;BME280_pressure;Samples;Min_cycle;Max_cycle;Signal;HPM_P1;HPM_P2
2023/10/21 00:04:44;;;;;;;12.48;5.28;;;;;12.80;97805.00;;;;10357737;28;20210;-71
2023/10/21 00:09:46;;;;;;;9.45;4.45;;;;;12.80;97794.00;;;;10402263;28;20206;-71
2023/10/21 00:14:48;;;;;;;9.68;4.90;;;;;12.70;97811.00;;;;10410319;28;20226;-72
2023/10/21 00:19:50;;;;;;;11.87;4.80;;;;;12.70;97807.00;;;;10443005;28;20318;-72
2023/10/21 00:24:52;;;;;;;9.90;4.35;;;;;12.70;97817.00;;;;10450972;28;20206;-71
2023/10/21 00:29:54;;;;;;;6.95;4.30;;;;;12.70;97819.00;;;;10431206;28;20221;-71
2023/10/21 00:34:56;;;;;;;13.73;4.85;;;;;12.70;97820.00;;;;10407751;28;20209;-71
2023/10/21 00:39:58;;;;;;;8.27;3.93;;;;;12.70;97828.00;;;;10428020;28;20688;-72
2023/10/21 00:45:03;;;;;;;7.45;4.13;;;;;12.60;97836.00;;;;10429456;28;20215;-72
2023/10/21 00:50:06;;;;;;;10.25;4.07;;;;;12.60;97846.00;;;;10422728;28;20257;-71
2023/10/21 00:55:10;;;;;;;7.43;4.07;;;;;12.50;97852.00;;;;10420070;28;20817;-71
2023/10/21 01:00:12;;;;;;;12.40;4.50;;;;;12.40;97857.00;;;;10413813;28;20258;-72
2023/10/21 01:05:21;;;;;;;10.67;4.50;;;;;12.30;97861.00;;;;10423234;28;20265;-71
2023/10/21 01:10:23;;;;;;;12.40;4.10;;;;;12.30;97869.00;;;;10426796;28;20210;-71
2023/10/21 01:15:25;;;;;;;6.30;4.10;;;;;12.30;97874.00;;;;10430305;28;20313;-71
2023/10/21 01:20:26;;;;;;;9.90;4.30;;;;;12.30;97874.00;;;;10428817;28;20222;-71
2023/10/21 01:25:28;;;;;;;6.20;4.30;;;;;12.30;97884.00;;;;10426318;28;20254;-72
2023/10/21 01:30:30;;;;;;;10.30;5.13;;;;;12.30;97892.00;;;;10430272;28;20201;-71
2023/10/21 01:35:32;;;;;;;13.10;5.63;;;;;12.40;97913.00;;;;10418985;28;20241;-71
2023/10/21 01:40:34;;;;;;;12.10;4.38;;;;;12.40;97909.00;;;;10408034;28;20233;-71
2023/10/21 01:45:36;;;;;;;11.98;4.32;;;;;12.40;97911.00;;;;10423496;28;20227;-72
2023/10/21 01:50:38;;;;;;;14.43;5.22;;;;;12.40;97927.00;;;;10401477;28;20211;-72
2023/10/21 01:55:42;;;;;;;11.18;4.45;;;;;12.40;97930.00;;;;10404123;28;20214;-72
2023/10/21 02:00:44;;;;;;;10.38;5.05;;;;;12.50;97941.00;;;;10410496;28;20230;-72
2023/10/21 02:05:46;;;;;;;7.93;4.75;;;;;12.50;97950.00;;;;10420733;28;20206;-72
2023/10/21 02:10:47;;;;;;;13.50;5.20;;;;;12.60;97951.00;;;;10431768;28;20660;-70
2023/10/21 02:15:52;;;;;;;13.07;5.20;;;;;12.60;97967.00;;;;10432029;28;20209;-71
2023/10/21 02:20:54;;;;;;;13.68;5.30;;;;;12.60;97975.00;;;;10405827;28;20252;-71
2023/10/21 02:26:03;;;;;;;16.75;5.00;;;;;12.60;97968.00;;;;10430311;28;20202;-71
2023/10/21 02:31:05;;;;;;;12.60;5.32;;;;;12.60;97963.00;;;;10407813;28;20206;-71
2023/10/21 02:36:08;;;;;;;14.87;5.03;;;;;12.50;97982.00;;;;10426754;28;20213;-71
2023/10/21 02:41:10;;;;;;;17.60;5.50;;;;;12.40;98002.00;;;;10427126;28;20280;-71
2023/10/21 02:46:13;;;;;;;14.27;5.30;;;;;12.50;98006.00;;;;10425409;28;20280;-71
2023/10/21 02:51:20;;;;;;;17.35;6.45;;;;;12.60;98026.00;;;;10426840;28;20213;-71
2023/10/21 02:56:23;;;;;;;13.67;6.30;;;;;12.70;98024.00;;;;10428933;28;20305;-71
2023/10/21 03:01:26;;;;;;;17.35;7.35;;;;;12.70;98024.00;;;;10404620;28;20741;-71
2023/10/21 03:06:29;;;;;;;18.17;7.20;;;;;12.80;98025.00;;;;10409261;28;20241;-71
2023/10/21 03:11:30;;;;;;;14.05;5.80;;;;;12.80;98021.00;;;;10424724;28;20276;-71
2023/10/21 03:16:33;;;;;;;16.23;5.95;;;;;12.80;98024.00;;;;10432743;28;20217;-71
2023/10/21 03:21:35;;;;;;;12.20;5.75;;;;;12.80;98035.00;;;;10429317;28;20310;-72
2023/10/21 03:26:36;;;;;;;11.38;5.32;;;;;12.80;98036.00;;;;10424294;28;20322;-74
2023/10/21 03:31:38;;;;;;;17.30;5.20;;;;;12.80;98034.00;;;;10430890;28;20202;-73
2023/10/21 03:36:40;;;;;;;15.63;5.72;;;;;12.80;98037.00;;;;10409268;28;20203;-72
2023/10/21 03:41:42;;;;;;;13.65;5.30;;;;;12.80;98036.00;;;;10423408;28;20218;-72
2023/10/21 03:46:45;;;;;;;11.18;5.82;;;;;12.80;98048.00;;;;10395908;28;20293;-73
2023/10/21 03:51:47;;;;;;;16.98;6.07;;;;;12.80;98064.00;;;;10405604;28;20215;-72
2023/10/21 03:56:51;;;;;;;13.50;6.03;;;;;12.90;98063.00;;;;10427044;28;20213;-73
2023/10/21 04:01:53;;;;;;;10.65;5.90;;;;;12.90;98071.00;;;;10431412;28;20227;-73
2023/10/21 04:06:54;;;;;;;13.02;5.53;;;;;13.00;98067.00;;;;10410589;28;20215;-72
2023/10/21 04:11:56;;;;;;;10.98;5.35;;;;;13.00;98072.00;;;;10411861;28;20298;-73
2023/10/21 04:16:59;;;;;;;13.63;6.05;;;;;13.00;98080.00;;;;10429230;28;20199;-73
2023/10/21 04:22:01;;;;;;;12.05;4.82;;;;;13.10;98077.00;;;;10428416;28;20695;-72
2023/10/21 04:27:03;;;;;;;7.93;5.03;;;;;13.10;98074.00;;;;10424143;28;20202;-72
2023/10/21 04:32:05;;;;;;;10.38;4.82;;;;;13.10;98071.00;;;;10429122;28;20234;-73
2023/10/21 04:37:07;;;;;;;11.90;4.63;;;;;13.10;98080.00;;;;10409148;28;20237;-72
2023/10/21 04:42:10;;;;;;;12.27;4.50;;;;;13.10;98081.00;;;;10434093;28;20931;-73
2023/10/21 04:47:12;;;;;;;7.93;4.18;;;;;13.20;98088.00;;;;10432656;28;20225;-73
2023/10/21 04:52:14;;;;;;;13.45;3.95;;;;;13.10;98100.00;;;;10416166;28;20301;-73
2023/10/21 04:57:16;;;;;;;12.57;3.75;;;;;13.10;98111.00;;;;10417487;28;20579;-73
2023/10/21 05:02:18;;;;;;;11.57;3.80;;;;;13.20;98123.00;;;;10411406;28;20242;-73
2023/10/21 05:07:20;;;;;;;9.88;3.50;;;;;13.20;98134.00;;;;10423053;28;20222;-73
2023/10/21 05:12:22;;;;;;;9.90;3.05;;;;;13.20;98140.00;;;;10428540;28;21409;-73
2023/10/21 05:17:24;;;;;;;10.80;2.92;;;;;13.10;98145.00;;;;10423346;28;20202;-72
2023/10/21 05:22:26;;;;;;;6.43;2.60;;;;;13.10;98156.00;;;;10428523;28;20226;-72
2023/10/21 05:27:28;;;;;;;8.38;2.90;;;;;13.10;98164.00;;;;10412645;28;20737;-72
2023/10/21 05:32:30;;;;;;;9.15;2.95;;;;;13.10;98182.00;;;;10431919;28;20256;-72
2023/10/21 05:37:32;;;;;;;3.85;2.28;;;;;13.10;98184.00;;;;10410631;28;20253;-72
2023/10/21 05:42:34;;;;;;;6.30;2.50;;;;;13.10;98208.00;;;;10400986;28;21016;-72
2023/10/21 05:47:36;;;;;;;3.88;2.08;;;;;13.00;98210.00;;;;10412974;28;20798;-73
2023/10/21 05:52:38;;;;;;;3.13;1.10;;;;;13.00;98237.00;;;;10425104;28;20202;-73
2023/10/21 05:57:40;;;;;;;3.63;1.00;;;;;12.80;98266.00;;;;10418445;28;20206;-73
2023/10/21 06:02:41;;;;;;;1.58;0.80;;;;;12.50;98279.00;;;;10426963;28;20280;-73
2023/10/21 06:07:43;;;;;;;1.48;0.77;;;;;12.40;98293.00;;;;10414487;28;20190;-73
2023/10/21 06:12:46;;;;;;;3.35;1.35;;;;;12.20;98320.00;;;;10408537;28;20746;-73
2023/10/21 06:17:51;;;;;;;3.27;1.03;;;;;12.20;98334.00;;;;10429914;28;20771;-73
2023/10/21 06:22:52;;;;;;;3.13;0.90;;;;;12.10;98340.00;;;;10420383;28;20223;-73
2023/10/21 06:27:54;;;;;;;1.60;1.07;;;;;12.10;98351.00;;;;10425662;28;20280;-73
2023/10/21 06:32:57;;;;;;;2.70;1.33;;;;;12.00;98357.00;;;;10427947;28;20337;-73
2023/10/21 06:37:59;;;;;;;3.30;1.37;;;;;12.00;98375.00;;;;10422536;28;20203;-73
2023/10/21 06:43:01;;;;;;;2.40;1.20;;;;;12.00;98394.00;;;;10429087;28;20234;-73
2023/10/21 06:48:04;;;;;;;2.60;1.20;;;;;12.00;98410.00;;;;10428120;28;20202;-73
2023/10/21 06:53:06;;;;;;;3.47;1.07;;;;;12.10;98410.00;;;;10409723;28;20730;-69
2023/10/21 06:58:09;;;;;;;1.98;1.20;;;;;12.10;98426.00;;;;10410646;28;20276;-68
2023/10/21 07:03:11;;;;;;;1.47;0.70;;;;;12.10;98436.00;;;;10431122;28;20222;-69
2023/10/21 07:08:13;;;;;;;1.70;0.93;;;;;12.20;98445.00;;;;10415858;28;20679;-69
2023/10/21 07:13:15;;;;;;;2.97;0.90;;;;;12.30;98448.00;;;;10422576;28;20595;-68
2023/10/21 07:18:17;;;;;;;2.95;1.60;;;;;12.50;98458.00;;;;10429720;28;20864;-69
2023/10/21 07:23:19;;;;;;;5.07;1.17;;;;;12.60;98478.00;;;;10423511;28;20227;-70
2023/10/21 07:28:21;;;;;;;2.33;0.82;;;;;12.60;98494.00;;;;10430814;28;20793;-72
2023/10/21 07:33:23;;;;;;;1.83;0.88;;;;;12.70;98495.00;;;;10404157;28;20236;-70
2023/10/21 07:38:25;;;;;;;3.20;0.98;;;;;12.80;98509.00;;;;10422313;28;20217;-69
2023/10/21 07:43:28;;;;;;;2.97;1.10;;;;;12.90;98518.00;;;;10432211;28;20866;-69
2023/10/21 07:48:31;;;;;;;4.45;1.13;;;;;13.30;98510.00;;;;10424094;28;20741;-70
2023/10/21 07:53:34;;;;;;;2.97;0.85;;;;;13.60;98526.00;;;;10385775;28;20206;-70
2023/10/21 07:58:38;;;;;;;5.55;0.80;;;;;13.50;98519.00;;;;10425073;28;20566;-69
2023/10/21 08:03:40;;;;;;;3.13;1.02;;;;;13.30;98527.00;;;;10411824;28;20268;-72
2023/10/21 08:08:42;;;;;;;4.13;1.17;;;;;13.30;98534.00;;;;10415134;28;20260;-73
2023/10/21 08:13:44;;;;;;;4.20;1.30;;;;;13.60;98539.00;;;;10409825;28;20234;-72
2023/10/21 08:18:46;;;;;;;2.30;1.27;;;;;14.00;98561.00;;;;10422952;28;20268;-72
2023/10/21 08:23:48;;;;;;;2.83;1.23;;;;;14.10;98566.00;;;;10351938;28;20210;-73
2023/10/21 08:28:50;;;;;;;3.28;0.80;;;;;14.40;98573.00;;;;10297212;28;20241;-73
2023/10/21 08:33:52;;;;;;;5.43;1.08;;;;;14.40;98579.00;;;;10326964;28;21766;-72
2023/10/21 08:38:55;;;;;;;4.00;0.95;;;;;14.20;98599.00;;;;10324724;28;20206;-73
2023/10/21 08:43:58;;;;;;;5.93;1.05;;;;;14.10;98598.00;;;;10321688;28;21696;-72
2023/10/21 08:49:03;;;;;;;3.97;1.15;;;;;14.20;98602.00;;;;10322554;28;20206;-72
2023/10/21 08:54:06;;;;;;;4.10;1.20;;;;;14.40;98598.00;;;;10303225;28;20708;-73
2023/10/21 08:59:09;;;;;;;7.93;1.23;;;;;14.80;98604.00;;;;10371252;28;20758;-72
2023/10/21 09:04:11;;;;;;;6.43;1.45;;;;;14.60;98602.00;;;;10400315;28;20298;-72
2023/10/21 09:09:26;;;;;;;10.38;1.65;;;;;14.60;98618.00;;;;10418812;28;20319;-72
2023/10/21 09:14:29;;;;;;;3.00;0.77;;;;;14.60;98612.00;;;;10399646;28;20206;-72
2023/10/21 09:19:31;;;;;;;8.27;2.22;;;;;15.00;98625.00;;;;10381096;28;20269;-72
2023/10/21 09:24:33;;;;;;;8.10;1.52;;;;;15.10;98635.00;;;;10411845;28;20237;-72
2023/10/21 09:29:36;;;;;;;6.32;1.55;;;;;15.20;98618.00;;;;10425631;28;20211;-72
2023/10/21 09:34:40;;;;;;;5.82;1.35;;;;;15.30;98627.00;;;;10421531;28;20205;-72
2023/10/21 09:39:43;;;;;;;5.95;1.35;;;;;15.40;98638.00;;;;10398889;28;20711;-72
2023/10/21 09:44:45;;;;;;;4.50;1.35;;;;;15.80;98652.00;;;;10404969;28;20223;-73
2023/10/21 09:49:48;;;;;;;7.57;1.58;;;;;15.80;98648.00;;;;10395816;28;20249;-73
2023/10/21 09:55:03;;;;;;;7.15;1.40;;;;;16.00;98651.00;;;;10392736;28;20259;-73
2023/10/21 10:00:07;;;;;;;7.93;1.58;;;;;15.90;98646.00;;;;10419709;28;20224;-73
2023/10/21 10:05:09;;;;;;;5.68;1.83;;;;;16.10;98647.00;;;;10407992;28;20259;-73
2023/10/21 10:10:13;;;;;;;7.68;1.80;;;;;16.10;98658.00;;;;10412773;28;20922;-73
2023/10/21 10:15:32;;;;;;;12.77;2.00;;;;;16.10;98654.00;;;;10424143;28;20321;-72
2023/10/21 10:20:43;;;;;;;7.50;1.75;;;;;16.40;98677.00;;;;10411707;28;20224;-73
2023/10/21 10:25:51;;;;;;;6.05;1.65;;;;;16.40;98676.00;;;;10411062;28;20209;-73
2023/10/21 10:30:56;;;;;;;9.13;1.88;;;;;16.00;98684.00;;;;10404189;28;20309;-69
2023/10/21 10:36:00;;;;;;;9.40;2.28;;;;;16.70;98680.00;;;;10406154;28;20845;-70
2023/10/21 10:41:06;;;;;;;8.95;2.20;;;;;17.00;98688.00;;;;10406050;28;20975;-70
2023/10/21 10:46:09;;;;;;;9.40;2.47;;;;;17.40;98675.00;;;;10415980;28;20217;-70
2023/10/21 10:51:15;;;;;;;9.35;2.20;;;;;17.40;98687.00;;;;10401541;28;20215;-70
2023/10/21 10:56:20;;;;;;;5.05;1.73;;;;;17.50;98687.00;;;;10403702;28;20782;-71
2023/10/21 11:01:26;;;;;;;7.57;2.78;;;;;17.60;98701.00;;;;10415052;28;20230;-70
2023/10/21 11:06:35;;;;;;;10.93;2.15;;;;;17.90;98690.00;;;;10411707;28;20203;-71
2023/10/21 11:11:47;;;;;;;5.57;1.98;;;;;17.40;98697.00;;;;10419833;28;20206;-71
2023/10/21 11:17:10;;;;;;;5.97;1.75;;;;;17.60;98704.00;;;;10315300;28;20214;-73
2023/10/21 11:22:20;;;;;;;8.52;2.05;;;;;17.80;98683.00;;;;10318845;28;20287;-73
2023/10/21 11:27:22;;;;;;;8.95;2.03;;;;;17.70;98693.00;;;;10319823;28;20252;-73
2023/10/21 11:32:27;;;;;;;9.40;2.30;;;;;17.90;98680.00;;;;10304630;28;20218;-73
2023/10/21 11:37:30;;;;;;;10.35;2.45;;;;;18.20;98689.00;;;;10318173;28;21873;-73
2023/10/21 11:42:32;;;;;;;10.07;2.30;;;;;18.20;98671.00;;;;10327836;28;20230;-74
2023/10/21 11:47:35;;;;;;;7.30;2.00;;;;;18.30;98677.00;;;;10294635;28;21255;-74
2023/10/21 11:52:40;;;;;;;11.25;2.65;;;;;17.80;98698.00;;;;10308416;28;20242;-73
2023/10/21 12:39:55;;;;;;;17.70;2.80;;;;;16.30;98709.00;;;;10323844;28;20235;-74
2023/10/21 12:44:57;;;;;;;8.95;2.33;;;;;16.20;98713.00;;;;10303524;28;20213;-74
2023/10/21 12:49:59;;;;;;;13.02;2.50;;;;;16.40;98714.00;;;;10320013;28;21912;-73
2023/10/21 12:55:06;;;;;;;15.82;2.70;;;;;16.50;98727.00;;;;10299180;28;20237;-71
2023/10/21 13:00:11;;;;;;;9.15;2.53;;;;;16.40;98719.00;;;;10305314;28;22097;-72
2023/10/21 13:05:14;;;;;;;9.75;2.55;;;;;15.90;98723.00;;;;10299707;28;20248;-72
2023/10/21 13:10:15;;;;;;;9.40;2.00;;;;;15.60;98725.00;;;;10295149;28;20222;-71
2023/10/21 13:15:17;;;;;;;15.85;3.10;;;;;15.20;98715.00;;;;10287338;28;22098;-71
2023/10/21 13:20:19;;;;;;;11.57;2.22;;;;;15.10;98727.00;;;;10298183;28;20353;-72
2023/10/21 13:25:21;;;;;;;9.88;1.92;;;;;15.00;98730.00;;;;10279308;28;21227;-72
2023/10/21 13:30:34;;;;;;;11.10;2.42;;;;;15.00;98733.00;;;;10295349;28;20214;-71
2023/10/21 13:35:36;;;;;;;13.52;2.70;;;;;14.90;98749.00;;;;10282816;28;21172;-71
2023/10/21 13:40:39;;;;;;;9.88;2.05;;;;;14.90;98743.00;;;;10285325;28;20699;-72
2023/10/21 13:45:41;;;;;;;7.65;1.90;;;;;14.60;98763.00;;;;10293893;28;21674;-72
2023/10/21 13:50:43;;;;;;;5.28;1.92;;;;;14.10;98766.00;;;;10298394;28;20245;-71
2023/10/21 13:55:45;;;;;;;8.63;2.05;;;;;13.90;98772.00;;;;10304883;28;20304;-72
2023/10/21 14:00:47;;;;;;;9.98;2.20;;;;;13.70;98778.00;;;;10284076;28;20314;-73
2023/10/21 14:05:50;;;;;;;9.30;2.70;;;;;13.70;98784.00;;;;10316651;28;20217;-73
2023/10/21 14:10:54;;;;;;;7.22;1.60;;;;;13.70;98788.00;;;;10321416;28;20238;-73
2023/10/21 14:16:04;;;;;;;6.78;1.45;;;;;13.50;98778.00;;;;10307211;28;20217;-74
2023/10/21 14:21:07;;;;;;;8.30;2.08;;;;;13.30;98773.00;;;;10327149;28;20231;-74
2023/10/21 14:26:12;;;;;;;10.25;1.90;;;;;13.30;98771.00;;;;10331528;28;20218;-73
2023/10/21 14:31:19;;;;;;;7.30;1.88;;;;;13.40;98769.00;;;;10329059;28;20210;-73
2023/10/21 14:36:21;;;;;;;7.53;2.20;;;;;13.60;98771.00;;;;10312494;28;20253;-73
2023/10/21 14:41:23;;;;;;;11.00;2.85;;;;;13.60;98777.00;;;;10336169;28;20234;-73
2023/10/21 14:46:25;;;;;;;9.18;1.98;;;;;13.70;98779.00;;;;10299222;28;20222;-73
2023/10/21 14:51:27;;;;;;;7.78;1.50;;;;;13.50;98787.00;;;;10295311;28;20226;-74
2023/10/21 14:56:29;;;;;;;8.02;1.92;;;;;13.40;98775.00;;;;10298322;28;20218;-73
2023/10/21 15:01:31;;;;;;;10.43;2.55;;;;;13.40;98783.00;;;;10311442;28;21847;-73
2023/10/21 15:06:34;;;;;;;7.95;2.08;;;;;13.40;98773.00;;;;10327782;28;20210;-73
2023/10/21 15:11:36;;;;;;;7.93;2.13;;;;;13.40;98777.00;;;;10310747;28;20213;-73
2023/10/21 15:16:37;;;;;;;9.02;2.10;;;;;13.50;98780.00;;;;10334369;28;20214;-73
2023/10/21 15:21:39;;;;;;;5.38;1.50;;;;;13.50;98778.00;;;;10326024;28;20226;-72
2023/10/21 15:26:41;;;;;;;7.25;1.60;;;;;13.40;98788.00;;;;10324434;28;20252;-72
2023/10/21 15:31:46;;;;;;;6.35;1.60;;;;;13.50;98778.00;;;;10303342;28;20308;-73
2023/10/21 15:36:52;;;;;;;7.45;1.80;;;;;13.70;98784.00;;;;10303893;28;21873;-73
2023/10/21 15:41:53;;;;;;;7.35;1.55;;;;;13.60;98803.00;;;;10307037;28;21945;-71
2023/10/21 15:46:56;;;;;;;9.50;1.58;;;;;13.70;98806.00;;;;10325222;28;20308;-73
2023/10/21 15:51:58;;;;;;;6.43;1.95;;;;;13.60;98805.00;;;;10325416;28;20210;-73
2023/10/21 15:57:00;;;;;;;5.90;1.70;;;;;13.40;98801.00;;;;10324320;28;22068;-72
2023/10/21 16:02:02;;;;;;;6.72;1.70;;;;;13.40;98818.00;;;;10324498;28;20943;-73
2023/10/21 16:07:04;;;;;;;11.23;1.65;;;;;13.40;98814.00;;;;10311996;28;20286;-72
2023/10/21 16:12:06;;;;;;;7.68;1.80;;;;;13.30;98826.00;;;;10352263;28;20241;-71
2023/10/21 16:17:08;;;;;;;6.10;1.45;;;;;13.40;98818.00;;;;10409510;28;20207;-71
2023/10/21 16:22:10;;;;;;;4.20;1.63;;;;;13.30;98814.00;;;;10415203;28;20240;-71
2023/10/21 16:27:13;;;;;;;5.00;1.40;;;;;13.40;98820.00;;;;10412053;28;20210;-72
2023/10/21 16:32:16;;;;;;;5.82;1.85;;;;;13.30;98828.00;;;;10414149;28;20199;-72
2023/10/21 16:37:18;;;;;;;6.50;1.80;;;;;13.40;98836.00;;;;10398395;28;20214;-71
2023/10/21 16:42:20;;;;;;;7.88;1.92;;;;;13.40;98838.00;;;;10408485;28;20234;-71
2023/10/21 16:47:22;;;;;;;11.63;2.20;;;;;13.40;98831.00;;;;10416746;28;20786;-71
2023/10/21 16:52:24;;;;;;;6.68;1.50;;;;;13.40;98845.00;;;;10414506;28;20328;-72
2023/10/21 16:57:26;;;;;;;5.18;1.20;;;;;13.30;98850.00;;;;10413877;28;20554;-71
2023/10/21 17:02:28;;;;;;;9.02;1.70;;;;;13.20;98837.00;;;;10423610;28;20939;-72
2023/10/21 17:07:30;;;;;;;4.50;1.45;;;;;13.20;98854.00;;;;10400912;28;20211;-71
2023/10/21 17:12:33;;;;;;;8.15;1.60;;;;;13.20;98870.00;;;;10404221;28;20214;-71
2023/10/21 17:17:35;;;;;;;6.85;1.30;;;;;13.20;98870.00;;;;10400358;28;20710;-71
2023/10/21 17:22:37;;;;;;;9.73;2.25;;;;;13.30;98883.00;;;;10400190;28;20222;-71
2023/10/21 17:27:38;;;;;;;8.55;1.65;;;;;13.30;98872.00;;;;10418436;28;20297;-71
2023/10/21 17:32:40;;;;;;;8.63;2.08;;;;;13.30;98891.00;;;;10399923;28;20214;-72
2023/10/21 17:37:43;;;;;;;4.97;1.40;;;;;13.30;98869.00;;;;10422119;28;20616;-74
2023/10/21 17:42:45;;;;;;;7.40;1.65;;;;;13.30;98879.00;;;;10409764;28;20317;-75
2023/10/21 17:47:48;;;;;;;5.13;1.25;;;;;13.30;98887.00;;;;10415747;28;20221;-74
2023/10/21 17:52:50;;;;;;;5.63;1.50;;;;;13.20;98879.00;;;;10412245;28;20238;-74
2023/10/21 17:57:52;;;;;;;5.05;1.30;;;;;13.10;98875.00;;;;10397045;28;20260;-74
2023/10/21 18:02:56;;;;;;;4.80;1.48;;;;;13.10;98881.00;;;;10415781;28;20266;-74
2023/10/21 18:07:58;;;;;;;5.70;1.52;;;;;13.00;98892.00;;;;10414206;28;20199;-75
2023/10/21 18:13:00;;;;;;;3.35;1.40;;;;;13.10;98884.00;;;;10414511;28;20218;-74
2023/10/21 18:18:02;;;;;;;7.82;2.05;;;;;13.20;98880.00;;;;10407026;28;20218;-74
2023/10/21 18:23:04;;;;;;;6.35;1.55;;;;;13.30;98902.00;;;;10400687;28;20277;-74
2023/10/21 18:28:06;;;;;;;5.85;1.40;;;;;13.30;98883.00;;;;10405281;28;20281;-75
2023/10/21 18:33:08;;;;;;;3.90;1.70;;;;;13.40;98888.00;;;;10423327;28;20203;-74
2023/10/21 18:38:10;;;;;;;4.15;1.27;;;;;13.30;98886.00;;;;10426538;28;20194;-74
2023/10/21 18:43:12;;;;;;;7.07;1.50;;;;;13.30;98896.00;;;;10408612;28;20238;-72
2023/10/21 18:48:14;;;;;;;4.72;1.65;;;;;13.20;98895.00;;;;10380296;28;20294;-73
2023/10/21 18:53:16;;;;;;;4.93;1.38;;;;;13.30;98902.00;;;;10373187;28;20225;-72
2023/10/21 18:58:18;;;;;;;8.20;1.65;;;;;13.30;98897.00;;;;10392448;28;20313;-73
2023/10/21 19:03:20;;;;;;;5.22;1.30;;;;;13.30;98906.00;;;;10376655;28;20509;-73
2023/10/21 19:08:23;;;;;;;3.70;1.55;;;;;13.30;98906.00;;;;10376099;28;20198;-72
2023/10/21 19:13:27;;;;;;;7.15;1.48;;;;;13.30;98908.00;;;;10380753;28;20191;-72
2023/10/21 19:18:29;;;;;;;5.13;1.55;;;;;13.30;98900.00;;;;10418959;28;20195;-72
2023/10/21 19:23:31;;;;;;;8.07;1.58;;;;;13.30;98911.00;;;;10404099;28;20254;-71
2023/10/21 19:28:33;;;;;;;6.50;1.50;;;;;13.30;98912.00;;;;10408296;28;20334;-71
2023/10/21 19:33:35;;;;;;;5.00;1.52;;;;;13.30;98923.00;;;;10417928;28;20954;-71
2023/10/21 19:38:38;;;;;;;6.68;1.67;;;;;13.30;98931.00;;;;10419167;28;20341;-70
2023/10/21 19:43:41;;;;;;;3.60;1.40;;;;;13.10;98939.00;;;;10418453;28;21072;-71
2023/10/21 19:48:43;;;;;;;5.55;1.00;;;;;12.80;98936.00;;;;10400169;28;20199;-72
2023/10/21 19:53:45;;;;;;;5.43;1.70;;;;;12.70;98937.00;;;;10401150;28;20277;-72
2023/10/21 19:58:48;;;;;;;4.88;1.38;;;;;12.70;98936.00;;;;10423257;28;20193;-72
2023/10/21 20:03:50;;;;;;;5.55;1.40;;;;;12.70;98935.00;;;;10419666;28;20218;-72
2023/10/21 20:08:52;;;;;;;5.65;1.52;;;;;12.80;98948.00;;;;10417447;28;20194;-72
2023/10/21 20:13:54;;;;;;;6.10;1.30;;;;;12.90;98941.00;;;;10414984;28;20213;-72
2023/10/21 20:18:57;;;;;;;3.07;0.83;;;;;13.00;98953.00;;;;10397963;28;20195;-72
2023/10/21 20:24:00;;;;;;;2.88;1.02;;;;;13.10;98954.00;;;;10420737;28;20218;-72
2023/10/21 20:29:03;;;;;;;1.85;0.90;;;;;13.10;98959.00;;;;10419146;28;20207;-72
2023/10/21 20:34:05;;;;;;;4.57;1.15;;;;;12.90;98966.00;;;;10406705;28;20191;-73
2023/10/21 20:39:08;;;;;;;3.22;1.15;;;;;12.70;98968.00;;;;10418323;28;20257;-72
2023/10/21 20:44:11;;;;;;;4.00;0.80;;;;;12.70;98970.00;;;;10414604;28;20214;-72
2023/10/21 20:49:13;;;;;;;2.50;0.63;;;;;12.70;98979.00;;;;10401260;28;20983;-72
2023/10/21 20:54:15;;;;;;;2.07;0.70;;;;;12.70;98992.00;;;;10420843;28;20289;-72
2023/10/21 20:59:17;;;;;;;3.13;1.10;;;;;12.70;98998.00;;;;10405556;28;20206;-72
2023/10/21 21:04:19;;;;;;;1.20;0.50;;;;;12.50;98989.00;;;;10396380;28;20276;-70
2023/10/21 21:09:21;;;;;;;2.90;0.77;;;;;12.30;98989.00;;;;10399371;28;20211;-70
2023/10/21 21:14:23;;;;;;;3.23;0.97;;;;;12.10;98980.00;;;;10397968;28;20205;-69
2023/10/21 21:19:25;;;;;;;1.73;0.67;;;;;12.00;98994.00;;;;10411401;28;20256;-70
2023/10/21 21:24:27;;;;;;;1.50;0.63;;;;;12.00;99001.00;;;;10391646;28;20308;-70
2023/10/21 21:29:29;;;;;;;3.30;0.60;;;;;12.10;99010.00;;;;10410985;28;20309;-70
2023/10/21 21:34:31;;;;;;;2.83;0.80;;;;;12.00;99005.00;;;;10422440;28;20868;-70
2023/10/21 21:39:33;;;;;;;1.87;0.60;;;;;12.00;99012.00;;;;10384675;28;20199;-71
2023/10/21 21:44:36;;;;;;;3.10;0.90;;;;;12.00;99017.00;;;;10410991;28;20212;-69
2023/10/21 21:49:37;;;;;;;2.93;1.00;;;;;11.90;99031.00;;;;10403330;28;20277;-70
2023/10/21 21:54:42;;;;;;;2.70;1.73;;;;;11.90;99015.00;;;;10394681;28;20979;-70
2023/10/21 21:59:48;;;;;;;1.37;0.63;;;;;11.90;99037.00;;;;10396996;28;20289;-71
2023/10/21 22:04:52;;;;;;;4.00;0.90;;;;;11.90;99033.00;;;;10413582;28;20292;-71
2023/10/21 22:09:53;;;;;;;3.13;1.20;;;;;11.90;99033.00;;;;10413444;28;20195;-70
2023/10/21 22:14:55;;;;;;;6.23;1.53;;;;;11.90;99052.00;;;;10418569;28;20194;-72
2023/10/21 22:19:57;;;;;;;2.37;1.07;;;;;11.90;99050.00;;;;10405115;28;20241;-72
2023/10/21 22:25:05;;;;;;;2.67;0.90;;;;;11.80;99065.00;;;;10413471;28;20222;-72
2023/10/21 22:30:11;;;;;;;3.30;1.20;;;;;11.90;99075.00;;;;10415994;28;20195;-72
2023/10/21 22:35:13;;;;;;;3.23;1.10;;;;;11.80;99076.00;;;;10422534;28;20218;-72
2023/10/21 22:40:17;;;;;;;4.80;1.37;;;;;11.80;99098.00;;;;10420678;28;20198;-72
2023/10/21 22:45:19;;;;;;;4.23;1.03;;;;;11.80;99095.00;;;;10420868;28;20214;-72
2023/10/21 22:50:21;;;;;;;6.23;1.50;;;;;11.90;99107.00;;;;10403142;28;20226;-72
2023/10/21 22:55:23;;;;;;;3.07;0.90;;;;;11.90;99113.00;;;;10419031;28;20209;-72
2023/10/21 23:00:27;;;;;;;5.07;1.10;;;;;11.90;99118.00;;;;10418419;28;20279;-72
2023/10/21 23:05:36;;;;;;;4.95;1.30;;;;;12.00;99135.00;;;;10419889;28;20289;-72
2023/10/21 23:10:38;;;;;;;2.93;0.90;;;;;12.00;99137.00;;;;10388318;28;20195;-72
2023/10/21 23:15:44;;;;;;;3.83;1.10;;;;;12.10;99141.00;;;;10414495;28;20199;-72
2023/10/21 23:20:46;;;;;;;3.97;1.03;;;;;12.10;99141.00;;;;10403640;28;20556;-71
2023/10/21 23:25:48;;;;;;;2.55;1.13;;;;;12.10;99159.00;;;;10400763;28;20295;-70
2023/10/21 23:30:50;;;;;;;2.97;1.27;;;;;12.00;99160.00;;;;10403678;28;20191;-70
2023/10/21 23:35:59;;;;;;;4.60;1.23;;;;;12.00;99167.00;;;;10415207;28;20615;-70
2023/10/21 23:41:07;;;;;;;4.73;1.23;;;;;12.00;99171.00;;;;10414629;28;20195;-70
2023/10/21 23:46:09;;;;;;;4.63;1.30;;;;;12.00;99194.00;;;;10399514;28;21042;-69
2023/10/21 23:51:11;;;;;;;8.13;1.43;;;;;12.00;99194.00;;;;10417316;28;20253;-70
2023/10/21 23:56:13;;;;;;;6.63;1.40;;;;;12.10;99200.00;;;;10411973;28;20202;-70
